sensor_id;sensor_type;location;lat;lon;timestamp;pressure;altitude;pressure_sealevel;temperature;humidity
55187;BME280;55457;52.002;5.464;2023-02-21T00:02:09;101838.09;;;20.11;44.38
55187;BME280;55457;52.002;5.464;2023-02-21T00:04:52;101829.97;;;20.11;44.50
55187;BME280;55457;52.002;5.464;2023-02-21T00:07:36;101836.41;;;20.10;44.50
55187;BME280;55457;52.002;5.464;2023-02-21T00:10:20;101831.00;;;20.10;44.48
55187;BME280;55457;52.002;5.464;2023-02-21T00:13:04;101831.84;;;20.10;44.38
55187;BME280;55457;52.002;5.464;2023-02-21T00:15:48;101837.28;;;20.10;44.41
55187;BME280;55457;52.002;5.464;2023-02-21T00:18:33;101831.00;;;20.10;44.50
55187;BME280;55457;52.002;5.464;2023-02-21T00:21:17;101836.41;;;20.10;44.50
55187;BME280;55457;52.002;5.464;2023-02-21T00:24:01;101830.19;;;20.09;44.49
55187;BME280;55457;52.002;5.464;2023-02-21T00:26:45;101831.00;;;20.10;44.48
55187;BME280;55457;52.002;5.464;2023-02-21T00:29:29;101829.34;;;20.08;44.64
55187;BME280;55457;52.002;5.464;2023-02-21T00:32:13;101834.75;;;20.08;44.42
55187;BME280;55457;52.002;5.464;2023-02-21T00:34:56;101831.00;;;20.10;44.60
55187;BME280;55457;52.002;5.464;2023-02-21T00:37:40;101833.94;;;20.08;44.52
55187;BME280;55457;52.002;5.464;2023-02-21T00:40:24;101823.94;;;20.08;44.56
55187;BME280;55457;52.002;5.464;2023-02-21T00:43:08;101833.09;;;20.07;44.47
55187;BME280;55457;52.002;5.464;2023-02-21T00:45:52;101826.03;;;20.06;44.70
55187;BME280;55457;52.002;5.464;2023-02-21T00:48:36;101828.75;;;20.06;44.59
55187;BME280;55457;52.002;5.464;2023-02-21T00:51:20;101819.56;;;20.07;44.67
55187;BME280;55457;52.002;5.464;2023-02-21T00:54:04;101821.47;;;20.07;44.52
55187;BME280;55457;52.002;5.464;2023-02-21T00:56:48;101820.63;;;20.06;44.66
55187;BME280;55457;52.002;5.464;2023-02-21T00:59:32;101825.00;;;20.07;44.50
55187;BME280;55457;52.002;5.464;2023-02-21T01:02:15;101813.56;;;20.05;44.72
55187;BME280;55457;52.002;5.464;2023-02-21T01:04:59;101812.50;;;20.06;44.49
55187;BME280;55457;52.002;5.464;2023-02-21T01:07:43;101818.97;;;20.05;44.63
55187;BME280;55457;52.002;5.464;2023-02-21T01:10:27;101815.44;;;20.05;44.51
55187;BME280;55457;52.002;5.464;2023-02-21T01:13:11;101810.84;;;20.05;44.62
55187;BME280;55457;52.002;5.464;2023-02-21T01:15:55;101808.16;;;20.05;44.77
55187;BME280;55457;52.002;5.464;2023-02-21T01:18:39;101803.75;;;20.04;44.62
55187;BME280;55457;52.002;5.464;2023-02-21T01:21:22;101814.38;;;20.06;44.64
55187;BME280;55457;52.002;5.464;2023-02-21T01:24:08;101801.06;;;20.04;44.76
55187;BME280;55457;52.002;5.464;2023-02-21T01:26:52;101798.34;;;20.04;44.86
55187;BME280;55457;52.002;5.464;2023-02-21T01:29:35;101795.66;;;20.04;44.79
55187;BME280;55457;52.002;5.464;2023-02-21T01:32:19;101791.09;;;20.05;44.80
55187;BME280;55457;52.002;5.464;2023-02-21T01:35:03;101786.69;;;20.04;44.75
55187;BME280;55457;52.002;5.464;2023-02-21T01:37:47;101779.41;;;20.04;44.86
55187;BME280;55457;52.002;5.464;2023-02-21T01:40:31;101783.16;;;20.03;44.70
55187;BME280;55457;52.002;5.464;2023-02-21T01:43:16;101783.16;;;20.03;44.78
55187;BME280;55457;52.002;5.464;2023-02-21T01:46:00;101782.34;;;20.03;44.74
55187;BME280;55457;52.002;5.464;2023-02-21T01:48:45;101784.00;;;20.04;44.88
55187;BME280;55457;52.002;5.464;2023-02-21T01:51:30;101776.94;;;20.03;44.84
55187;BME280;55457;52.002;5.464;2023-02-21T01:54:16;101776.09;;;20.02;44.74
55187;BME280;55457;52.002;5.464;2023-02-21T01:57:01;101784.22;;;20.02;44.80
55187;BME280;55457;52.002;5.464;2023-02-21T01:59:44;101779.63;;;20.03;44.78
55187;BME280;55457;52.002;5.464;2023-02-21T02:05:15;101775.06;;;20.03;44.98
55187;BME280;55457;52.002;5.464;2023-02-21T02:08:00;101772.34;;;20.03;44.95
55187;BME280;55457;52.002;5.464;2023-02-21T02:10:44;101779.41;;;20.04;44.95
55187;BME280;55457;52.002;5.464;2023-02-21T02:15:58;101781.53;;;20.02;45.00
55187;BME280;55457;52.002;5.464;2023-02-21T02:18:36;101779.41;;;20.04;44.85
55187;BME280;55457;52.002;5.464;2023-02-21T02:40:02;101765.28;;;20.02;44.81
55187;BME280;55457;52.002;5.464;2023-02-21T02:45:05;101765.28;;;20.02;44.93
55187;BME280;55457;52.002;5.464;2023-02-21T02:47:33;101773.41;;;20.02;44.94
55187;BME280;55457;52.002;5.464;2023-02-21T02:49:58;101767.38;;;20.00;44.94
55187;BME280;55457;52.002;5.464;2023-02-21T02:52:24;101769.03;;;20.01;44.89
55187;BME280;55457;52.002;5.464;2023-02-21T02:54:59;101768.00;;;20.02;45.02
55187;BME280;55457;52.002;5.464;2023-02-21T02:57:25;101768.22;;;20.01;44.97
55187;BME280;55457;52.002;5.464;2023-02-21T02:59:51;101761.97;;;20.00;44.94
55187;BME280;55457;52.002;5.464;2023-02-21T03:15:13;101760.09;;;20.01;45.21
55187;BME280;55457;52.002;5.464;2023-02-21T03:17:41;101758.22;;;20.01;45.21
55187;BME280;55457;52.002;5.464;2023-02-21T03:20:08;101755.75;;;20.00;45.08
55187;BME280;55457;52.002;5.464;2023-02-21T03:22:35;101758.22;;;20.01;45.15
55187;BME280;55457;52.002;5.464;2023-02-21T03:25:01;101754.06;;;19.99;45.32
55187;BME280;55457;52.002;5.464;2023-02-21T03:27:27;101755.75;;;20.00;45.23
55187;BME280;55457;52.002;5.464;2023-02-21T03:29:55;101753.88;;;20.00;45.14
55187;BME280;55457;52.002;5.464;2023-02-21T03:32:26;101750.34;;;20.00;45.30
55187;BME280;55457;52.002;5.464;2023-02-21T03:34:53;101760.31;;;19.99;45.22
55187;BME280;55457;52.002;5.464;2023-02-21T03:37:20;101763.03;;;19.99;45.33
55187;BME280;55457;52.002;5.464;2023-02-21T03:39:46;101761.16;;;20.00;45.31
55187;BME280;55457;52.002;5.464;2023-02-21T03:42:11;101762.19;;;19.99;45.42
55187;BME280;55457;52.002;5.464;2023-02-21T03:44:36;101755.94;;;19.98;45.36
55187;BME280;55457;52.002;5.464;2023-02-21T03:47:01;101754.91;;;19.99;45.36
55187;BME280;55457;52.002;5.464;2023-02-21T03:49:27;101752.41;;;19.98;45.48
55187;BME280;55457;52.002;5.464;2023-02-21T03:51:52;101754.28;;;19.97;45.34
55187;BME280;55457;52.002;5.464;2023-02-21T03:54:17;101757.00;;;19.97;45.49
55187;BME280;55457;52.002;5.464;2023-02-21T03:56:42;101759.69;;;19.97;45.47
55187;BME280;55457;52.002;5.464;2023-02-21T03:59:08;101745.34;;;19.97;45.47
55187;BME280;55457;52.002;5.464;2023-02-21T04:01:33;101753.47;;;19.97;45.55
55187;BME280;55457;52.002;5.464;2023-02-21T04:03:58;101750.53;;;19.98;45.32
55187;BME280;55457;52.002;5.464;2023-02-21T04:06:23;101743.47;;;19.97;45.31
55187;BME280;55457;52.002;5.464;2023-02-21T04:08:48;101746.16;;;19.97;45.33
55187;BME280;55457;52.002;5.464;2023-02-21T04:11:17;101730.75;;;19.98;45.46
55187;BME280;55457;52.002;5.464;2023-02-21T04:13:42;101746.16;;;19.97;45.47
55187;BME280;55457;52.002;5.464;2023-02-21T04:16:08;101748.88;;;19.97;45.31
55187;BME280;55457;52.002;5.464;2023-02-21T04:18:33;101743.47;;;19.97;45.30
55187;BME280;55457;52.002;5.464;2023-02-21T04:20:58;101750.75;;;19.97;45.28
55187;BME280;55457;52.002;5.464;2023-02-21T04:23:23;101746.16;;;19.97;45.26
55187;BME280;55457;52.002;5.464;2023-02-21T04:25:48;101757.00;;;19.97;45.32
55187;BME280;55457;52.002;5.464;2023-02-21T04:28:14;101757.00;;;19.97;45.24
55187;BME280;55457;52.002;5.464;2023-02-21T04:30:39;101749.09;;;19.96;45.22
55187;BME280;55457;52.002;5.464;2023-02-21T04:33:04;101751.81;;;19.96;45.26
55187;BME280;55457;52.002;5.464;2023-02-21T04:35:29;101746.16;;;19.97;45.31
55187;BME280;55457;52.002;5.464;2023-02-21T04:37:55;101732.88;;;19.96;45.25
55187;BME280;55457;52.002;5.464;2023-02-21T04:40:20;101732.88;;;19.96;45.28
55187;BME280;55457;52.002;5.464;2023-02-21T04:42:45;101729.09;;;19.97;45.31
55187;BME280;55457;52.002;5.464;2023-02-21T04:45:11;101729.34;;;19.95;45.31
55187;BME280;55457;52.002;5.464;2023-02-21T04:47:36;101724.97;;;19.94;45.43
55187;BME280;55457;52.002;5.464;2023-02-21T04:50:02;101725.81;;;19.95;45.43
55187;BME280;55457;52.002;5.464;2023-02-21T04:52:27;101717.88;;;19.93;45.46
55187;BME280;55457;52.002;5.464;2023-02-21T04:54:52;101715.81;;;19.95;45.33
55187;BME280;55457;52.002;5.464;2023-02-21T04:57:17;101713.09;;;19.95;45.31
55187;BME280;55457;52.002;5.464;2023-02-21T04:59:43;101713.31;;;19.94;45.34
55187;BME280;55457;52.002;5.464;2023-02-21T05:02:08;101712.06;;;19.96;45.30
55187;BME280;55457;52.002;5.464;2023-02-21T05:04:36;101717.69;;;19.95;45.35
55187;BME280;55457;52.002;5.464;2023-02-21T05:07:02;101715.81;;;19.95;45.43
55187;BME280;55457;52.002;5.464;2023-02-21T05:09:27;101708.75;;;19.94;45.42
55187;BME280;55457;52.002;5.464;2023-02-21T05:11:53;101706.03;;;19.94;45.41
55187;BME280;55457;52.002;5.464;2023-02-21T05:14:18;101708.75;;;19.94;45.41
55187;BME280;55457;52.002;5.464;2023-02-21T05:16:43;101724.13;;;19.94;45.50
55187;BME280;55457;52.002;5.464;2023-02-21T05:19:09;101730.38;;;19.94;45.47
55187;BME280;55457;52.002;5.464;2023-02-21T05:21:34;101732.88;;;19.96;45.56
55187;BME280;55457;52.002;5.464;2023-02-21T05:24:02;101723.94;;;19.95;45.52
55187;BME280;55457;52.002;5.464;2023-02-21T05:26:31;101725.81;;;19.95;45.54
55187;BME280;55457;52.002;5.464;2023-02-21T05:28:57;101720.59;;;19.93;45.77
55187;BME280;55457;52.002;5.464;2023-02-21T05:31:22;101730.38;;;19.94;45.57
55187;BME280;55457;52.002;5.464;2023-02-21T05:33:47;101728.72;;;19.93;45.76
55187;BME280;55457;52.002;5.464;2023-02-21T05:36:13;101734.13;;;19.93;45.63
55187;BME280;55457;52.002;5.464;2023-02-21T05:38:48;101738.50;;;19.94;45.78
55187;BME280;55457;52.002;5.464;2023-02-21T05:41:13;101739.34;;;19.95;45.82
55187;BME280;55457;52.002;5.464;2023-02-21T05:43:38;101734.13;;;19.93;45.63
55187;BME280;55457;52.002;5.464;2023-02-21T05:46:04;101731.41;;;19.93;45.65
55187;BME280;55457;52.002;5.464;2023-02-21T05:48:29;101727.06;;;19.92;45.79
55187;BME280;55457;52.002;5.464;2023-02-21T05:50:54;101728.72;;;19.93;45.65
55187;BME280;55457;52.002;5.464;2023-02-21T05:53:19;101738.69;;;19.93;45.85
55187;BME280;55457;52.002;5.464;2023-02-21T05:55:44;101744.13;;;19.93;45.85
55187;BME280;55457;52.002;5.464;2023-02-21T05:58:10;101743.28;;;19.92;45.75
55187;BME280;55457;52.002;5.464;2023-02-21T06:00:35;101744.13;;;19.93;45.91
55187;BME280;55457;52.002;5.464;2023-02-21T06:03:00;101731.63;;;19.92;45.75
55187;BME280;55457;52.002;5.464;2023-02-21T06:05:25;101728.13;;;19.91;45.82
55187;BME280;55457;52.002;5.464;2023-02-21T06:07:51;101727.88;;;19.93;45.82
55187;BME280;55457;52.002;5.464;2023-02-21T06:10:16;101736.22;;;19.91;45.93
55187;BME280;55457;52.002;5.464;2023-02-21T06:12:41;101752.22;;;19.93;45.96
55187;BME280;55457;52.002;5.464;2023-02-21T06:15:07;101754.94;;;19.93;45.83
55187;BME280;55457;52.002;5.464;2023-02-21T06:17:34;101742.06;;;19.88;45.98
55187;BME280;55457;52.002;5.464;2023-02-21T06:20:00;101742.47;;;19.92;45.91
55187;BME280;55457;52.002;5.464;2023-02-21T06:22:25;101735.16;;;19.92;46.07
55187;BME280;55457;52.002;5.464;2023-02-21T06:24:50;101737.88;;;19.92;45.91
55187;BME280;55457;52.002;5.464;2023-02-21T06:27:15;101734.34;;;19.92;45.85
55187;BME280;55457;52.002;5.464;2023-02-21T06:29:41;101745.16;;;19.92;46.01
55187;BME280;55457;52.002;5.464;2023-02-21T06:32:06;101746.00;;;19.92;45.99
55187;BME280;55457;52.002;5.464;2023-02-21T06:34:31;101746.00;;;19.92;46.03
55187;BME280;55457;52.002;5.464;2023-02-21T06:36:56;101750.34;;;19.93;46.11
55187;BME280;55457;52.002;5.464;2023-02-21T06:39:22;101746.81;;;19.93;45.93
55187;BME280;55457;52.002;5.464;2023-02-21T06:41:50;101746.63;;;19.94;46.02
55187;BME280;55457;52.002;5.464;2023-02-21T06:44:15;101751.19;;;19.94;45.84
55187;BME280;55457;52.002;5.464;2023-02-21T06:46:41;101753.69;;;19.95;45.91
55187;BME280;55457;52.002;5.464;2023-02-21T06:49:07;101761.81;;;19.95;45.84
55187;BME280;55457;52.002;5.464;2023-02-21T06:51:36;101767.00;;;19.97;45.90
55187;BME280;55457;52.002;5.464;2023-02-21T06:54:01;101768.63;;;19.98;45.82
55187;BME280;55457;52.002;5.464;2023-02-21T06:56:27;101765.09;;;19.97;45.87
55187;BME280;55457;52.002;5.464;2023-02-21T06:58:52;101758.66;;;19.98;45.92
55187;BME280;55457;52.002;5.464;2023-02-21T07:01:18;101758.66;;;19.98;45.73
55187;BME280;55457;52.002;5.464;2023-02-21T07:03:43;101750.53;;;19.98;45.83
55187;BME280;55457;52.002;5.464;2023-02-21T07:06:10;101755.75;;;20.00;45.81
55187;BME280;55457;52.002;5.464;2023-02-21T07:08:35;101752.81;;;20.01;45.80
55187;BME280;55457;52.002;5.464;2023-02-21T07:11:00;101759.88;;;20.02;45.96
55187;BME280;55457;52.002;5.464;2023-02-21T07:13:26;101761.53;;;20.03;45.98
55187;BME280;55457;52.002;5.464;2023-02-21T07:15:51;101759.88;;;20.02;46.06
55187;BME280;55457;52.002;5.464;2023-02-21T07:18:16;101754.47;;;20.02;46.07
55187;BME280;55457;52.002;5.464;2023-02-21T07:20:41;101756.13;;;20.03;46.24
55187;BME280;55457;52.002;5.464;2023-02-21T07:23:07;101754.47;;;20.02;46.09
55187;BME280;55457;52.002;5.464;2023-02-21T07:25:32;101757.16;;;20.02;46.15
55187;BME280;55457;52.002;5.464;2023-02-21T07:27:57;101754.47;;;20.02;46.18
55187;BME280;55457;52.002;5.464;2023-02-21T07:30:22;101758.22;;;20.01;46.04
55187;BME280;55457;52.002;5.464;2023-02-21T07:32:48;101754.47;;;20.02;46.00
55187;BME280;55457;52.002;5.464;2023-02-21T07:35:13;101760.69;;;20.03;46.17
55187;BME280;55457;52.002;5.464;2023-02-21T07:37:38;101759.88;;;20.02;46.14
55187;BME280;55457;52.002;5.464;2023-02-21T07:40:04;101764.22;;;20.03;46.01
55187;BME280;55457;52.002;5.464;2023-02-21T07:42:31;101764.47;;;20.02;46.09
55187;BME280;55457;52.002;5.464;2023-02-21T07:44:56;101759.88;;;20.02;45.92
55187;BME280;55457;52.002;5.464;2023-02-21T07:47:22;101757.16;;;20.02;46.08
55187;BME280;55457;52.002;5.464;2023-02-21T07:49:47;101765.28;;;20.02;46.04
55187;BME280;55457;52.002;5.464;2023-02-21T07:52:12;101763.63;;;20.01;45.92
55187;BME280;55457;52.002;5.464;2023-02-21T07:54:37;101770.69;;;20.02;46.02
55187;BME280;55457;52.002;5.464;2023-02-21T07:57:02;101773.63;;;20.01;45.74
55187;BME280;55457;52.002;5.464;2023-02-21T07:59:28;101776.09;;;20.02;45.79
55187;BME280;55457;52.002;5.464;2023-02-21T08:01:53;101774.44;;;20.01;45.99
55187;BME280;55457;52.002;5.464;2023-02-21T08:04:19;101770.69;;;20.02;45.85
55187;BME280;55457;52.002;5.464;2023-02-21T08:06:46;101770.09;;;20.00;45.79
55187;BME280;55457;52.002;5.464;2023-02-21T08:09:11;101768.22;;;20.01;45.99
55187;BME280;55457;52.002;5.464;2023-02-21T08:11:37;101773.41;;;20.02;45.77
55187;BME280;55457;52.002;5.464;2023-02-21T08:14:04;101780.47;;;20.03;45.92
55187;BME280;55457;52.002;5.464;2023-02-21T08:16:29;101785.88;;;20.03;45.70
55187;BME280;55457;52.002;5.464;2023-02-21T08:18:54;101776.94;;;20.03;45.93
55187;BME280;55457;52.002;5.464;2023-02-21T08:21:20;101774.00;;;20.04;45.74
55187;BME280;55457;52.002;5.464;2023-02-21T08:23:45;101774.00;;;20.04;45.77
55187;BME280;55457;52.002;5.464;2023-02-21T08:26:10;101772.16;;;20.05;45.88
55187;BME280;55457;52.002;5.464;2023-02-21T08:28:35;101778.38;;;20.05;45.97
55187;BME280;55457;52.002;5.464;2023-02-21T08:31:01;101768.59;;;20.04;46.14
55187;BME280;55457;52.002;5.464;2023-02-21T08:33:26;101765.50;;;20.01;46.21
55187;BME280;55457;52.002;5.464;2023-02-21T08:35:51;101766.75;;;19.98;46.35
55187;BME280;55457;52.002;5.464;2023-02-21T08:38:17;101765.75;;;19.99;46.43
55187;BME280;55457;52.002;5.464;2023-02-21T08:40:42;101765.75;;;19.99;46.50
55187;BME280;55457;52.002;5.464;2023-02-21T08:43:07;101766.56;;;20.00;46.65
55187;BME280;55457;52.002;5.464;2023-02-21T08:45:32;101763.84;;;20.00;46.71
55187;BME280;55457;52.002;5.464;2023-02-21T08:47:58;101763.63;;;20.01;46.49
55187;BME280;55457;52.002;5.464;2023-02-21T08:50:24;101759.88;;;20.02;46.49
55187;BME280;55457;52.002;5.464;2023-02-21T08:52:50;101765.69;;;20.06;46.45
55187;BME280;55457;52.002;5.464;2023-02-21T08:55:15;101767.34;;;20.07;46.45
55187;BME280;55457;52.002;5.464;2023-02-21T08:57:41;101766.06;;;20.10;46.37
55187;BME280;55457;52.002;5.464;2023-02-21T09:00:06;101767.75;;;20.11;46.30
55187;BME280;55457;52.002;5.464;2023-02-21T09:02:35;101760.22;;;20.13;46.25
55187;BME280;55457;52.002;5.464;2023-02-21T09:05:14;101754.81;;;20.13;46.21
55187;BME280;55457;52.002;5.464;2023-02-21T09:07:40;101756.25;;;20.15;46.18
55187;BME280;55457;52.002;5.464;2023-02-21T09:10:05;101766.03;;;20.16;46.30
55187;BME280;55457;52.002;5.464;2023-02-21T09:12:33;101758.97;;;20.15;46.28
55187;BME280;55457;52.002;5.464;2023-02-21T09:14:58;101751.66;;;20.16;46.33
55187;BME280;55457;52.002;5.464;2023-02-21T09:17:24;101743.56;;;20.16;46.24
55187;BME280;55457;52.002;5.464;2023-02-21T09:19:49;101746.25;;;20.16;46.39
55187;BME280;55457;52.002;5.464;2023-02-21T09:22:14;101748.13;;;20.15;46.43
55187;BME280;55457;52.002;5.464;2023-02-21T09:24:40;101743.56;;;20.16;46.32
55187;BME280;55457;52.002;5.464;2023-02-21T09:27:05;101739.78;;;20.17;46.25
55187;BME280;55457;52.002;5.464;2023-02-21T09:29:31;101742.50;;;20.17;46.35
55187;BME280;55457;52.002;5.464;2023-02-21T09:31:56;101738.72;;;20.18;46.17
55187;BME280;55457;52.002;5.464;2023-02-21T09:34:22;101740.63;;;20.17;46.54
55187;BME280;55457;52.002;5.464;2023-02-21T09:36:47;101728.97;;;20.17;46.48
55187;BME280;55457;52.002;5.464;2023-02-21T09:39:14;101731.44;;;20.18;46.36
55187;BME280;55457;52.002;5.464;2023-02-21T09:41:40;101728.97;;;20.17;46.05
55187;BME280;55457;52.002;5.464;2023-02-21T09:44:11;101730.63;;;20.18;46.15
55187;BME280;55457;52.002;5.464;2023-02-21T09:46:39;101718.97;;;20.17;46.23
55187;BME280;55457;52.002;5.464;2023-02-21T09:49:10;101730.63;;;20.18;46.17
55187;BME280;55457;52.002;5.464;2023-02-21T09:51:37;101728.97;;;20.17;45.95
55187;BME280;55457;52.002;5.464;2023-02-21T09:54:05;101722.72;;;20.16;46.11
55187;BME280;55457;52.002;5.464;2023-02-21T09:56:38;101723.56;;;20.17;46.07
55187;BME280;55457;52.002;5.464;2023-02-21T09:59:09;101730.03;;;20.16;45.82
55187;BME280;55457;52.002;5.464;2023-02-21T10:06:38;101710.84;;;20.17;45.94
55187;BME280;55457;52.002;5.464;2023-02-21T10:14:40;101718.13;;;20.17;45.77
55187;BME280;55457;52.002;5.464;2023-02-21T10:17:16;101716.25;;;20.17;45.85
55187;BME280;55457;52.002;5.464;2023-02-21T10:19:44;101718.97;;;20.17;45.82
55187;BME280;55457;52.002;5.464;2023-02-21T10:22:16;101716.47;;;20.16;45.69
55187;BME280;55457;52.002;5.464;2023-02-21T10:24:43;101711.91;;;20.16;45.70
55187;BME280;55457;52.002;5.464;2023-02-21T10:27:11;101724.59;;;20.16;45.71
55187;BME280;55457;52.002;5.464;2023-02-21T10:32:23;101722.72;;;20.16;45.83
55187;BME280;55457;52.002;5.464;2023-02-21T10:34:51;101719.19;;;20.16;45.68
55187;BME280;55457;52.002;5.464;2023-02-21T10:37:24;101720.84;;;20.17;45.76
55187;BME280;55457;52.002;5.464;2023-02-21T10:39:53;101724.38;;;20.17;45.77
55187;BME280;55457;52.002;5.464;2023-02-21T10:42:25;101730.84;;;20.16;45.65
55187;BME280;55457;52.002;5.464;2023-02-21T10:44:52;101719.19;;;20.16;45.68
55187;BME280;55457;52.002;5.464;2023-02-21T10:47:21;101726.25;;;20.17;45.58
55187;BME280;55457;52.002;5.464;2023-02-21T10:52:18;101733.16;;;20.13;45.91
55187;BME280;55457;52.002;5.464;2023-02-21T10:55:00;101726.09;;;20.12;46.08
55187;BME280;55457;52.002;5.464;2023-02-21T10:57:25;101729.03;;;20.10;46.30
55187;BME280;55457;52.002;5.464;2023-02-21T10:59:51;101733.56;;;20.10;46.31
55187;BME280;55457;52.002;5.464;2023-02-21T11:02:33;101722.75;;;20.10;46.44
55187;BME280;55457;52.002;5.464;2023-02-21T11:05:07;101718.41;;;20.08;46.35
55187;BME280;55457;52.002;5.464;2023-02-21T11:07:32;101721.09;;;20.08;46.63
55187;BME280;55457;52.002;5.464;2023-02-21T11:09:58;101713.22;;;20.07;46.63
55187;BME280;55457;52.002;5.464;2023-02-21T11:12:24;101716.16;;;20.05;46.39
55187;BME280;55457;52.002;5.464;2023-02-21T11:17:19;101716.75;;;20.07;46.38
55187;BME280;55457;52.002;5.464;2023-02-21T11:22:17;101712.78;;;20.10;46.20
55187;BME280;55457;52.002;5.464;2023-02-21T11:24:44;101719.03;;;20.11;46.35
55187;BME280;55457;52.002;5.464;2023-02-21T11:27:11;101710.91;;;20.11;46.59
55187;BME280;55457;52.002;5.464;2023-02-21T11:29:36;101706.53;;;20.10;46.70
55187;BME280;55457;52.002;5.464;2023-02-21T11:32:11;101711.94;;;20.10;46.71
55187;BME280;55457;52.002;5.464;2023-02-21T11:34:37;101709.22;;;20.10;46.57
55187;BME280;55457;52.002;5.464;2023-02-21T11:37:09;101703.81;;;20.10;46.51
55187;BME280;55457;52.002;5.464;2023-02-21T11:39:34;101702.78;;;20.11;46.36
55187;BME280;55457;52.002;5.464;2023-02-21T11:42:00;101704.44;;;20.12;46.47
55187;BME280;55457;52.002;5.464;2023-02-21T11:47:06;101703.63;;;20.11;46.36
55187;BME280;55457;52.002;5.464;2023-02-21T11:50:22;101702.78;;;20.11;46.18
55187;BME280;55457;52.002;5.464;2023-02-21T11:52:21;101704.44;;;20.12;46.01
55187;BME280;55457;52.002;5.464;2023-02-21T11:54:49;101703.63;;;20.11;46.19
55187;BME280;55457;52.002;5.464;2023-02-21T12:08:04;101691.97;;;20.11;46.16
55187;BME280;55457;52.002;5.464;2023-02-21T12:12:50;101688.63;;;20.08;46.17
55187;BME280;55457;52.002;5.464;2023-02-21T12:15:21;101691.34;;;20.08;46.02
55187;BME280;55457;52.002;5.464;2023-02-21T12:20:24;101681.34;;;20.09;45.96
55187;BME280;55457;52.002;5.464;2023-02-21T12:28:06;101680.31;;;20.10;45.95
55187;BME280;55457;52.002;5.464;2023-02-21T12:35:52;101668.63;;;20.10;45.83
55187;BME280;55457;52.002;5.464;2023-02-21T12:38:30;101675.72;;;20.11;45.96
55187;BME280;55457;52.002;5.464;2023-02-21T12:43:29;101672.41;;;20.08;45.77
55187;BME280;55457;52.002;5.464;2023-02-21T12:46:20;101668.63;;;20.10;45.74
55187;BME280;55457;52.002;5.464;2023-02-21T12:48:51;101655.34;;;20.08;45.89
55187;BME280;55457;52.002;5.464;2023-02-21T12:51:23;101665.34;;;20.07;45.81
55187;BME280;55457;52.002;5.464;2023-02-21T12:53:54;101658.03;;;20.08;45.80
55187;BME280;55457;52.002;5.464;2023-02-21T12:59:07;101653.44;;;20.08;45.77
55187;BME280;55457;52.002;5.464;2023-02-21T13:01:37;101650.75;;;20.08;45.83
55187;BME280;55457;52.002;5.464;2023-02-21T13:06:52;101644.75;;;20.06;45.77
55187;BME280;55457;52.002;5.464;2023-02-21T13:09:36;101644.50;;;20.08;45.74
55187;BME280;55457;52.002;5.464;2023-02-21T13:12:04;101650.75;;;20.08;45.74
55187;BME280;55457;52.002;5.464;2023-02-21T13:14:41;101646.38;;;20.07;45.89
55187;BME280;55457;52.002;5.464;2023-02-21T13:17:11;101644.50;;;20.08;45.86
55187;BME280;55457;52.002;5.464;2023-02-21T13:19:59;101644.50;;;20.08;45.69
55187;BME280;55457;52.002;5.464;2023-02-21T13:22:23;101634.50;;;20.08;45.73
55187;BME280;55457;52.002;5.464;2023-02-21T13:25:23;101639.91;;;20.08;45.73
55187;BME280;55457;52.002;5.464;2023-02-21T13:28:03;101634.50;;;20.08;45.66
55187;BME280;55457;52.002;5.464;2023-02-21T13:32:59;101634.50;;;20.08;45.61
55187;BME280;55457;52.002;5.464;2023-02-21T13:35:37;101627.44;;;20.07;45.63
55187;BME280;55457;52.002;5.464;2023-02-21T13:38:04;101631.81;;;20.08;45.76
55187;BME280;55457;52.002;5.464;2023-02-21T13:43:08;101621.22;;;20.07;45.69
55187;BME280;55457;52.002;5.464;2023-02-21T13:45:35;101624.97;;;20.06;45.75
55187;BME280;55457;52.002;5.464;2023-02-21T13:58:28;101616.63;;;20.07;45.65
55187;BME280;55457;52.002;5.464;2023-02-21T14:00:55;101610.63;;;20.05;45.82
55187;BME280;55457;52.002;5.464;2023-02-21T14:10:46;101605.22;;;20.05;45.60
55187;BME280;55457;52.002;5.464;2023-02-21T14:15:56;101614.97;;;20.06;45.74
55187;BME280;55457;52.002;5.464;2023-02-21T14:18:29;101613.31;;;20.05;45.63
55187;BME280;55457;52.002;5.464;2023-02-21T14:20:56;101607.91;;;20.05;45.83
55187;BME280;55457;52.002;5.464;2023-02-21T14:23:23;101604.16;;;20.06;45.69
55187;BME280;55457;52.002;5.464;2023-02-21T14:25:56;101607.69;;;20.07;45.82
55187;BME280;55457;52.002;5.464;2023-02-21T14:31:11;101595.38;;;20.11;45.81
55187;BME280;55457;52.002;5.464;2023-02-21T14:33:37;101603.03;;;20.14;45.91
55187;BME280;55457;52.002;5.464;2023-02-21T14:36:03;101615.28;;;20.17;45.98
55187;BME280;55457;52.002;5.464;2023-02-21T14:38:31;101614.00;;;20.19;45.91
55187;BME280;55457;52.002;5.464;2023-02-21T14:41:03;101605.69;;;20.21;45.92
55187;BME280;55457;52.002;5.464;2023-02-21T14:43:44;101600.28;;;20.21;45.93
55187;BME280;55457;52.002;5.464;2023-02-21T15:01:54;101595.22;;;20.24;45.87
55187;BME280;55457;52.002;5.464;2023-02-21T15:04:22;101593.81;;;20.22;45.80
55187;BME280;55457;52.002;5.464;2023-02-21T15:09:33;101586.78;;;20.14;46.11
55187;BME280;55457;52.002;5.464;2023-02-21T15:11:58;101585.38;;;20.12;46.37
55187;BME280;55457;52.002;5.464;2023-02-21T15:14:28;101583.91;;;20.09;46.81
55187;BME280;55457;52.002;5.464;2023-02-21T15:17:10;101589.81;;;20.06;46.97
55187;BME280;55457;52.002;5.464;2023-02-21T15:19:35;101582.13;;;20.03;47.01
55187;BME280;55457;52.002;5.464;2023-02-21T15:24:32;101588.00;;;20.00;47.15
55187;BME280;55457;52.002;5.464;2023-02-21T15:27:10;101580.06;;;19.98;47.19
55187;BME280;55457;52.002;5.464;2023-02-21T15:29:36;101585.50;;;19.98;47.30
55187;BME280;55457;52.002;5.464;2023-02-21T15:32:01;101582.19;;;19.96;47.41